createdAt,value
2018-09-26T00:00:09.283Z,9.40
2018-09-26T00:02:41.825Z,9.40
2018-09-26T00:05:11.136Z,9.40
2018-09-26T00:07:40.811Z,9.40
2018-09-26T00:10:10.048Z,9.50
2018-09-26T00:12:39.785Z,9.50
2018-09-26T00:15:09.060Z,9.50
2018-09-26T00:17:38.283Z,9.40
2018-09-26T00:20:07.988Z,9.40
2018-09-26T00:22:37.219Z,9.20
2018-09-26T00:25:06.520Z,9.10
2018-09-26T00:27:35.748Z,9.10
2018-09-26T00:30:05.032Z,9.00
2018-09-26T00:32:34.587Z,9.00
2018-09-26T00:35:03.937Z,8.90
2018-09-26T00:37:33.344Z,8.90
2018-09-26T00:40:02.589Z,8.70
2018-09-26T00:42:32.334Z,8.60
2018-09-26T00:45:01.549Z,8.50
2018-09-26T00:47:30.774Z,8.50
2018-09-26T00:50:00.021Z,8.50
2018-09-26T00:52:29.232Z,8.50
2018-09-26T00:54:58.440Z,8.50
2018-09-26T00:57:28.049Z,8.50
2018-09-26T00:59:57.296Z,8.60
2018-09-26T01:02:26.535Z,8.50
2018-09-26T01:04:55.797Z,8.50
2018-09-26T01:07:25.173Z,8.60
2018-09-26T01:09:54.732Z,8.70
2018-09-26T01:12:23.981Z,8.80
2018-09-26T01:14:53.196Z,8.70
2018-09-26T01:17:22.415Z,8.60
2018-09-26T01:19:52.136Z,8.50
2018-09-26T01:22:21.364Z,8.50
2018-09-26T01:24:50.592Z,8.40
2018-09-26T01:27:19.851Z,8.40
2018-09-26T01:29:49.104Z,8.40
2018-09-26T01:32:18.325Z,8.40
2018-09-26T01:34:47.568Z,8.40
2018-09-26T01:37:16.792Z,8.40
2018-09-26T01:39:45.999Z,8.30
2018-09-26T01:42:15.536Z,8.20
2018-09-26T01:44:44.768Z,8.20
2018-09-26T01:47:13.980Z,8.20
2018-09-26T01:49:43.524Z,8.10
2018-09-26T01:52:12.768Z,8.20
2018-09-26T01:54:42.001Z,8.10
2018-09-26T01:57:11.447Z,8.20
2018-09-26T01:59:40.649Z,8.30
2018-09-26T02:02:09.876Z,8.50
2018-09-26T02:04:39.408Z,8.40
2018-09-26T02:07:08.648Z,8.30
2018-09-26T02:09:37.861Z,8.30
2018-09-26T02:12:08.052Z,8.20
2018-09-26T02:14:37.281Z,8.00
2018-09-26T02:17:06.544Z,8.10
2018-09-26T02:19:35.785Z,8.00
2018-09-26T02:22:05.020Z,8.00
2018-09-26T02:24:34.244Z,7.90
2018-09-26T02:27:03.724Z,7.80
2018-09-26T02:29:32.932Z,7.70
2018-09-26T02:32:02.172Z,7.70
2018-09-26T02:34:31.409Z,7.70
2018-09-26T02:37:00.636Z,7.70
2018-09-26T02:39:29.848Z,7.60
2018-09-26T02:41:59.212Z,7.40
2018-09-26T02:44:28.423Z,7.40
2018-09-26T02:46:57.623Z,7.60
2018-09-26T02:49:27.285Z,7.70
2018-09-26T02:51:56.513Z,7.60
2018-09-26T02:54:25.732Z,7.60
2018-09-26T02:56:54.964Z,7.60
2018-09-26T02:59:24.169Z,7.50
2018-09-26T03:01:53.414Z,7.50
2018-09-26T03:04:22.790Z,7.50
2018-09-26T03:06:52.041Z,7.30
2018-09-26T03:09:21.248Z,7.20
2018-09-26T03:11:50.592Z,7.20
2018-09-26T03:14:20.088Z,7.30
2018-09-26T03:16:49.300Z,7.20
2018-09-26T03:19:18.560Z,7.20
2018-09-26T03:21:47.804Z,7.10
2018-09-26T03:24:17.008Z,7.20
2018-09-26T03:26:46.269Z,7.20
2018-09-26T03:29:15.484Z,7.10
2018-09-26T03:31:44.713Z,7.10
2018-09-26T03:34:14.388Z,7.00
2018-09-26T03:36:43.592Z,7.00
2018-09-26T03:39:12.795Z,7.00
2018-09-26T03:41:42.041Z,7.00
2018-09-26T03:44:11.252Z,6.90
2018-09-26T03:46:40.461Z,6.90
2018-09-26T03:49:09.704Z,7.10
2018-09-26T03:51:38.924Z,7.20
2018-09-26T03:54:08.292Z,7.20
2018-09-26T03:56:37.788Z,7.00
2018-09-26T03:59:07.275Z,6.90
2018-09-26T04:01:36.756Z,6.80
2018-09-26T04:04:06.029Z,6.50
2018-09-26T04:06:35.252Z,6.50
2018-09-26T04:09:05.620Z,6.50
2018-09-26T04:11:34.860Z,6.40
2018-09-26T04:14:04.120Z,6.40
2018-09-26T04:16:33.876Z,6.40
2018-09-26T04:19:03.649Z,6.30
2018-09-26T04:21:32.872Z,6.30
2018-09-26T04:24:02.087Z,6.40
2018-09-26T04:26:31.530Z,6.60
2018-09-26T04:29:00.555Z,6.80
2018-09-26T04:31:29.760Z,6.70
2018-09-26T04:33:59.177Z,6.70
2018-09-26T04:36:28.303Z,6.80
2018-09-26T04:38:57.642Z,6.70
2018-09-26T04:41:27.063Z,6.80
2018-09-26T04:43:56.535Z,6.70
2018-09-26T04:46:25.942Z,6.70
2018-09-26T04:48:55.192Z,6.60
2018-09-26T04:51:24.412Z,6.60
2018-09-26T04:53:53.628Z,6.40
2018-09-26T04:56:22.972Z,6.40
2018-09-26T04:58:52.216Z,6.30
2018-09-26T05:01:21.452Z,6.40
2018-09-26T05:03:50.866Z,6.50
2018-09-26T05:06:20.093Z,6.40
2018-09-26T05:08:49.546Z,6.40
2018-09-26T05:11:18.793Z,6.50
2018-09-26T05:13:48.024Z,6.50
2018-09-26T05:16:17.258Z,6.50
2018-09-26T05:18:46.884Z,6.50
2018-09-26T05:21:16.240Z,6.70
2018-09-26T05:23:45.464Z,6.60
2018-09-26T05:26:15.076Z,6.60
2018-09-26T05:28:44.502Z,6.70
2018-09-26T05:31:13.696Z,6.70
2018-09-26T05:33:42.946Z,6.60
2018-09-26T05:36:12.158Z,6.60
2018-09-26T05:38:41.394Z,6.40
2018-09-26T05:41:10.644Z,6.40
2018-09-26T05:43:39.978Z,6.30
2018-09-26T05:46:09.274Z,6.20
2018-09-26T05:48:39.113Z,6.20
2018-09-26T05:51:08.396Z,6.30
2018-09-26T05:53:38.380Z,6.40
2018-09-26T05:56:07.692Z,6.40
2018-09-26T05:58:37.034Z,6.30
2018-09-26T06:01:06.300Z,6.30
2018-09-26T06:03:35.808Z,6.40
2018-09-26T06:06:05.085Z,6.30
2018-09-26T06:08:34.308Z,6.30
2018-09-26T06:11:03.944Z,6.40
2018-09-26T06:13:33.147Z,6.60
2018-09-26T06:16:02.360Z,6.70
2018-09-26T06:18:31.634Z,6.80
2018-09-26T06:21:01.150Z,6.80
2018-09-26T06:23:30.654Z,7.00
2018-09-26T06:25:59.908Z,7.10
2018-09-26T06:28:29.200Z,7.10
2018-09-26T06:30:58.429Z,7.20
2018-09-26T06:33:28.090Z,7.20
2018-09-26T06:35:57.470Z,7.30
2018-09-26T06:38:26.767Z,7.40
2018-09-26T06:40:56.071Z,7.50
2018-09-26T06:43:25.371Z,7.50
2018-09-26T06:45:54.651Z,7.50
2018-09-26T06:48:23.977Z,7.60
2018-09-26T06:50:53.228Z,7.60
2018-09-26T06:53:22.572Z,7.70
2018-09-26T06:55:52.083Z,7.70
2018-09-26T06:58:21.440Z,7.70
2018-09-26T07:00:51.090Z,7.80
2018-09-26T07:03:20.325Z,7.90
2018-09-26T07:05:49.540Z,7.90
2018-09-26T07:08:19.855Z,8.00
2018-09-26T07:10:49.164Z,8.30
2018-09-26T07:13:18.457Z,8.40
2018-09-26T07:15:47.714Z,8.50
2018-09-26T07:18:17.310Z,8.50
2018-09-26T07:20:46.541Z,8.60
2018-09-26T07:23:16.336Z,8.50
2018-09-26T07:25:45.589Z,8.50
2018-09-26T07:28:14.805Z,8.60
2018-09-26T07:30:44.033Z,8.60
2018-09-26T07:33:13.511Z,8.70
2018-09-26T07:35:42.839Z,8.70
2018-09-26T07:38:12.092Z,8.70
2018-09-26T07:40:41.632Z,8.80
2018-09-26T07:43:10.843Z,8.80
2018-09-26T07:45:40.189Z,8.80
2018-09-26T07:48:09.446Z,8.90
2018-09-26T07:50:38.660Z,9.00
2018-09-26T07:53:07.941Z,9.10
2018-09-26T07:55:37.244Z,9.20
2018-09-26T07:58:06.489Z,9.20
2018-09-26T08:00:35.888Z,9.20
2018-09-26T08:03:05.349Z,9.20
2018-09-26T08:05:35.753Z,9.20
2018-09-26T08:08:04.988Z,9.20
2018-09-26T08:10:34.248Z,9.30
2018-09-26T08:13:03.479Z,9.30
2018-09-26T08:15:32.944Z,9.40
2018-09-26T08:18:02.442Z,9.40
2018-09-26T08:20:31.609Z,9.50
2018-09-26T08:23:00.823Z,9.50
2018-09-26T08:25:30.888Z,9.60
2018-09-26T08:28:00.109Z,9.70
2018-09-26T08:30:29.388Z,9.80
2018-09-26T08:32:58.640Z,9.90
2018-09-26T08:35:27.852Z,10.00
2018-09-26T08:37:57.076Z,10.10
2018-09-26T08:40:26.323Z,10.10
2018-09-26T08:42:55.572Z,10.10
2018-09-26T08:45:24.801Z,10.10
2018-09-26T08:47:54.288Z,10.20
2018-09-26T08:50:23.536Z,10.20
2018-09-26T08:52:52.743Z,10.30
2018-09-26T08:55:22.002Z,10.40
2018-09-26T08:57:51.309Z,10.40
2018-09-26T09:00:25.973Z,10.50
2018-09-26T09:02:55.200Z,10.60
2018-09-26T09:05:24.445Z,10.60
2018-09-26T09:07:54.560Z,10.80
2018-09-26T09:10:23.771Z,10.90
2018-09-26T09:12:53.036Z,10.90
2018-09-26T09:15:22.621Z,11.00
2018-09-26T09:17:51.904Z,11.00
2018-09-26T09:20:21.176Z,11.10
2018-09-26T09:22:50.393Z,11.20
2018-09-26T09:25:19.658Z,11.20
2018-09-26T09:27:49.412Z,11.20
2018-09-26T09:30:18.847Z,11.20
2018-09-26T09:32:48.244Z,11.30
2018-09-26T09:35:17.520Z,11.30
2018-09-26T09:37:46.804Z,11.40
2018-09-26T09:40:16.140Z,11.60
2018-09-26T09:42:45.790Z,11.60
2018-09-26T09:45:15.028Z,11.70
2018-09-26T09:47:44.291Z,11.80
2018-09-26T09:50:13.699Z,11.90
2018-09-26T09:52:43.176Z,12.00
2018-09-26T09:55:12.604Z,12.10
2018-09-26T09:57:41.849Z,12.30
2018-09-26T10:00:11.205Z,12.60
2018-09-26T10:02:40.653Z,12.90
2018-09-26T10:05:10.014Z,13.50
2018-09-26T10:07:39.416Z,14.50
2018-09-26T10:10:08.725Z,15.70
2018-09-26T10:12:37.956Z,16.50
2018-09-26T10:15:07.369Z,17.10
2018-09-26T10:17:36.942Z,17.80
2018-09-26T10:20:06.184Z,18.40
2018-09-26T10:22:35.383Z,18.80
2018-09-26T10:25:04.782Z,19.20
2018-09-26T10:27:35.627Z,19.10
2018-09-26T10:30:05.905Z,18.50
2018-09-26T10:32:35.472Z,18.20
2018-09-26T10:35:05.016Z,18.20
2018-09-26T10:37:34.407Z,18.50
2018-09-26T10:40:03.705Z,18.50
2018-09-26T10:42:33.011Z,18.20
2018-09-26T10:45:03.671Z,18.10
2018-09-26T10:47:32.884Z,18.90
2018-09-26T10:50:02.428Z,19.80
2018-09-26T10:52:31.734Z,20.40
2018-09-26T10:55:01.180Z,21.00
2018-09-26T10:57:30.600Z,21.60
2018-09-26T10:59:59.949Z,22.10
2018-09-26T11:02:29.285Z,22.60
2018-09-26T11:04:58.556Z,22.70
2018-09-26T11:07:27.836Z,22.10
2018-09-26T11:09:57.117Z,21.90
2018-09-26T11:12:26.423Z,22.40
2018-09-26T11:14:55.758Z,22.80
2018-09-26T11:17:24.966Z,22.90
2018-09-26T11:19:54.263Z,23.40
2018-09-26T11:22:23.760Z,23.90
2018-09-26T11:24:53.229Z,24.50
2018-09-26T11:27:22.571Z,25.00
2018-09-26T11:29:52.153Z,25.50
2018-09-26T11:32:21.462Z,25.60
2018-09-26T11:34:50.678Z,25.90
2018-09-26T11:37:20.060Z,26.00
2018-09-26T11:39:49.395Z,26.20
2018-09-26T11:42:19.888Z,26.30
2018-09-26T11:44:49.348Z,26.50
2018-09-26T11:47:18.467Z,26.80
2018-09-26T11:49:47.787Z,27.10
2018-09-26T11:52:17.217Z,27.10
2018-09-26T11:54:46.727Z,26.90
2018-09-26T11:57:16.343Z,27.10
2018-09-26T11:59:45.677Z,26.80
2018-09-26T12:02:15.030Z,26.60
2018-09-26T12:04:44.850Z,26.60
2018-09-26T12:07:14.328Z,26.80
2018-09-26T12:09:43.492Z,27.00
2018-09-26T12:12:13.003Z,27.60
2018-09-26T12:14:42.462Z,28.30
2018-09-26T12:17:11.969Z,28.70
2018-09-26T12:19:45.548Z,28.90
2018-09-26T12:22:14.948Z,29.00
2018-09-26T12:24:44.129Z,29.10
2018-09-26T12:27:14.805Z,29.20
2018-09-26T12:29:44.273Z,29.30
2018-09-26T12:32:13.628Z,29.30
2018-09-26T12:34:43.249Z,29.80
2018-09-26T12:37:12.533Z,30.10
2018-09-26T12:39:41.823Z,30.20
2018-09-26T12:42:11.162Z,29.70
2018-09-26T12:44:41.608Z,29.40
2018-09-26T12:47:10.969Z,28.70
2018-09-26T12:49:42.592Z,28.20
2018-09-26T12:52:11.880Z,28.20
2018-09-26T12:54:41.156Z,28.50
2018-09-26T12:57:10.397Z,28.80
2018-09-26T12:59:39.623Z,29.10
2018-09-26T13:02:09.223Z,28.70
2018-09-26T13:04:38.468Z,28.50
2018-09-26T13:07:07.812Z,28.30
2018-09-26T13:09:37.032Z,28.00
2018-09-26T13:12:06.660Z,27.90
2018-09-26T13:14:35.902Z,28.40
2018-09-26T13:17:05.396Z,28.70
2018-09-26T13:19:34.753Z,28.90
2018-09-26T13:22:03.993Z,29.10
2018-09-26T13:24:33.216Z,28.90
2018-09-26T13:27:02.529Z,28.80
2018-09-26T13:29:31.788Z,28.90
2018-09-26T13:32:03.120Z,29.20
2018-09-26T13:34:32.340Z,29.30
2018-09-26T13:37:01.949Z,29.10
2018-09-26T13:39:34.618Z,29.10
2018-09-26T13:42:04.255Z,29.30
2018-09-26T13:44:34.644Z,29.70
2018-09-26T13:47:04.176Z,29.80
2018-09-26T13:49:33.612Z,29.60
2018-09-26T13:52:02.913Z,29.50
2018-09-26T13:54:32.301Z,29.80
2018-09-26T13:57:01.824Z,30.10
2018-09-26T13:59:31.057Z,30.20
2018-09-26T14:02:00.352Z,30.30
2018-09-26T14:04:29.565Z,30.30
2018-09-26T14:06:59.008Z,30.20
2018-09-26T14:09:28.296Z,30.00
2018-09-26T14:11:57.526Z,30.00
2018-09-26T14:14:26.810Z,30.10
2018-09-26T14:16:56.203Z,30.20
2018-09-26T14:19:25.508Z,30.50
2018-09-26T14:21:54.802Z,30.80
2018-09-26T14:24:24.045Z,31.00
2018-09-26T14:26:53.273Z,31.00
2018-09-26T14:29:22.725Z,30.60
2018-09-26T14:31:52.172Z,29.80
2018-09-26T14:34:21.388Z,29.30
2018-09-26T14:36:50.888Z,28.70
2018-09-26T14:39:20.151Z,28.20
2018-09-26T14:41:49.356Z,28.20
2018-09-26T14:44:18.667Z,28.20
2018-09-26T14:46:47.873Z,28.10
2018-09-26T14:49:17.167Z,28.00
2018-09-26T14:51:46.404Z,27.90
2018-09-26T14:54:15.865Z,27.90
2018-09-26T14:56:45.098Z,27.90
2018-09-26T14:59:14.442Z,27.80
2018-09-26T15:01:43.756Z,27.70
2018-09-26T15:04:13.078Z,27.40
2018-09-26T15:06:42.282Z,27.20
2018-09-26T15:09:11.872Z,27.20
2018-09-26T15:11:41.101Z,27.20
2018-09-26T15:14:11.715Z,27.00
2018-09-26T15:16:41.146Z,26.80
2018-09-26T15:19:10.356Z,26.50
2018-09-26T15:21:39.854Z,26.10
2018-09-26T15:24:09.135Z,25.90
2018-09-26T15:26:38.397Z,25.80
2018-09-26T15:29:07.748Z,25.70
2018-09-26T15:31:37.084Z,25.40
2018-09-26T15:34:07.161Z,25.10
2018-09-26T15:36:36.357Z,24.80
2018-09-26T15:39:08.006Z,24.50
2018-09-26T15:41:37.566Z,24.20
2018-09-26T15:44:07.006Z,23.90
2018-09-26T15:46:36.360Z,23.80
2018-09-26T15:49:05.960Z,23.60
2018-09-26T15:51:35.808Z,23.50
2018-09-26T15:54:05.164Z,23.50
2018-09-26T15:56:34.345Z,23.40
2018-09-26T15:59:05.948Z,23.40
2018-09-26T16:01:35.164Z,23.30
2018-09-26T16:04:04.748Z,23.10
2018-09-26T16:06:34.408Z,23.00
2018-09-26T16:09:04.396Z,22.90
2018-09-26T16:11:33.759Z,22.70
2018-09-26T16:14:03.149Z,22.60
2018-09-26T16:16:32.308Z,22.40
2018-09-26T16:19:01.741Z,22.30
2018-09-26T16:21:31.208Z,22.30
2018-09-26T16:24:00.675Z,22.30
2018-09-26T16:26:29.924Z,22.30
2018-09-26T16:28:59.172Z,22.20
2018-09-26T16:31:28.403Z,22.10
2018-09-26T16:33:57.613Z,22.00
2018-09-26T16:36:27.056Z,21.80
2018-09-26T16:38:56.509Z,21.70
2018-09-26T16:41:25.765Z,21.50
2018-09-26T16:43:55.052Z,21.40
2018-09-26T16:46:24.500Z,21.20
2018-09-26T16:48:53.725Z,21.10
2018-09-26T16:51:22.967Z,21.00
2018-09-26T16:53:52.181Z,20.90
2018-09-26T16:56:21.577Z,20.70
2018-09-26T16:58:50.933Z,20.60
2018-09-26T17:01:20.231Z,20.50
2018-09-26T17:03:49.466Z,20.30
2018-09-26T17:06:19.083Z,20.20
2018-09-26T17:08:50.567Z,20.10
2018-09-26T17:11:21.107Z,19.90
2018-09-26T17:13:50.608Z,19.70
2018-09-26T17:16:20.006Z,19.70
2018-09-26T17:18:49.296Z,19.50
2018-09-26T17:21:18.540Z,19.50
2018-09-26T17:23:47.896Z,19.30
2018-09-26T17:26:17.346Z,19.20
2018-09-26T17:28:46.607Z,19.00
2018-09-26T17:31:15.783Z,18.90
2018-09-26T17:33:46.341Z,18.80
2018-09-26T17:36:15.591Z,18.70
2018-09-26T17:38:44.804Z,18.70
2018-09-26T17:41:14.052Z,18.50
2018-09-26T17:43:43.275Z,18.40
2018-09-26T17:46:12.610Z,18.30
2018-09-26T17:48:41.920Z,18.20
2018-09-26T17:51:11.392Z,18.20
2018-09-26T17:53:40.717Z,18.00
2018-09-26T17:56:09.979Z,18.00
2018-09-26T17:58:39.324Z,17.90
2018-09-26T18:01:08.573Z,17.80
2018-09-26T18:03:37.960Z,17.70
2018-09-26T18:06:07.217Z,17.70
2018-09-26T18:08:37.035Z,17.60
2018-09-26T18:11:06.690Z,17.50
2018-09-26T18:13:35.908Z,17.40
2018-09-26T18:16:06.637Z,17.40
2018-09-26T18:18:35.995Z,17.30
2018-09-26T18:21:05.527Z,17.20
2018-09-26T18:23:34.796Z,17.20
2018-09-26T18:26:05.380Z,17.10
2018-09-26T18:28:34.612Z,17.00
2018-09-26T18:31:03.997Z,17.00
2018-09-26T18:33:33.321Z,16.90
2018-09-26T18:36:02.563Z,16.80
2018-09-26T18:38:32.183Z,16.70
2018-09-26T18:41:01.444Z,16.60
2018-09-26T18:43:30.708Z,16.60
2018-09-26T18:45:59.921Z,16.60
2018-09-26T18:48:29.164Z,16.40
2018-09-26T18:50:58.403Z,16.30
2018-09-26T18:53:27.636Z,16.20
2018-09-26T18:55:57.029Z,16.10
2018-09-26T18:58:26.544Z,15.90
2018-09-26T19:00:55.777Z,15.90
2018-09-26T19:03:25.020Z,15.90
2018-09-26T19:05:54.244Z,15.80
2018-09-26T19:08:23.972Z,15.70
2018-09-26T19:10:53.208Z,15.70
2018-09-26T19:13:22.436Z,15.60
2018-09-26T19:15:51.656Z,15.60
2018-09-26T19:18:20.960Z,15.70
2018-09-26T19:20:50.213Z,15.60
2018-09-26T19:23:19.836Z,15.60
2018-09-26T19:25:49.104Z,15.50
2018-09-26T19:28:18.364Z,15.60
2018-09-26T19:30:47.616Z,15.50
2018-09-26T19:33:17.116Z,15.50
2018-09-26T19:35:46.320Z,15.50
2018-09-26T19:38:15.672Z,15.40
2018-09-26T19:40:45.204Z,15.30
2018-09-26T19:43:14.566Z,15.20
2018-09-26T19:45:43.875Z,15.20
2018-09-26T19:48:13.237Z,15.20
2018-09-26T19:50:43.701Z,15.20
2018-09-26T19:53:13.046Z,15.20
2018-09-26T19:55:42.689Z,15.20
2018-09-26T19:58:12.248Z,15.10
2018-09-26T20:00:41.412Z,15.10
2018-09-26T20:03:10.748Z,15.00
2018-09-26T20:05:39.968Z,14.90
2018-09-26T20:08:09.469Z,14.70
2018-09-26T20:10:38.548Z,14.60
2018-09-26T20:13:07.840Z,14.50
2018-09-26T20:15:37.022Z,14.50
2018-09-26T20:18:06.514Z,14.40
2018-09-26T20:20:36.580Z,14.30
2018-09-26T20:23:05.990Z,14.30
2018-09-26T20:25:35.421Z,14.30
2018-09-26T20:28:04.712Z,14.30
2018-09-26T20:30:33.924Z,14.20
2018-09-26T20:33:03.374Z,14.20
2018-09-26T20:35:32.600Z,14.00
2018-09-26T20:38:01.982Z,14.00
2018-09-26T20:40:31.556Z,14.10
2018-09-26T20:43:00.896Z,14.10
2018-09-26T20:45:30.188Z,14.00
2018-09-26T20:47:59.669Z,14.00
2018-09-26T20:50:28.899Z,14.00
2018-09-26T20:52:58.116Z,13.90
2018-09-26T20:55:27.362Z,13.90
2018-09-26T20:57:56.585Z,13.80
2018-09-26T21:00:25.887Z,13.80
2018-09-26T21:02:55.816Z,13.80
2018-09-26T21:05:25.044Z,13.70
2018-09-26T21:07:54.276Z,13.70
2018-09-26T21:10:23.684Z,13.70
2018-09-26T21:12:52.958Z,13.60
2018-09-26T21:15:22.439Z,13.50
2018-09-26T21:17:51.726Z,13.50
2018-09-26T21:20:22.021Z,13.40
2018-09-26T21:22:51.451Z,13.40
2018-09-26T21:25:20.962Z,13.40
2018-09-26T21:27:50.184Z,13.40
2018-09-26T21:30:19.432Z,13.30
2018-09-26T21:32:49.032Z,13.30
2018-09-26T21:35:18.239Z,13.20
2018-09-26T21:37:47.448Z,13.10
2018-09-26T21:40:16.796Z,13.10
2018-09-26T21:42:46.576Z,13.10
2018-09-26T21:45:15.805Z,13.10
2018-09-26T21:47:45.055Z,13.10
2018-09-26T21:50:14.362Z,13.10
2018-09-26T21:52:43.505Z,13.00
2018-09-26T21:55:12.852Z,13.00
2018-09-26T21:57:42.061Z,13.00
2018-09-26T22:00:11.445Z,12.90
2018-09-26T22:02:40.716Z,12.90
2018-09-26T22:05:10.032Z,12.90
2018-09-26T22:07:39.252Z,12.90
2018-09-26T22:10:08.531Z,12.90
2018-09-26T22:12:37.748Z,12.90
2018-09-26T22:15:11.521Z,12.80
2018-09-26T22:17:41.100Z,12.80
2018-09-26T22:20:10.347Z,12.80
2018-09-26T22:22:39.580Z,12.70
2018-09-26T22:25:08.853Z,12.70
2018-09-26T22:27:38.057Z,12.60
2018-09-26T22:30:07.457Z,12.60
2018-09-26T22:32:36.672Z,12.50
2018-09-26T22:35:05.932Z,12.40
2018-09-26T22:37:35.536Z,12.40
2018-09-26T22:40:04.776Z,12.30
2018-09-26T22:42:33.996Z,12.30
2018-09-26T22:45:03.535Z,12.30
2018-09-26T22:47:32.740Z,12.40
2018-09-26T22:50:01.997Z,12.40
2018-09-26T22:52:31.319Z,12.40
2018-09-26T22:55:00.516Z,12.40
2018-09-26T22:57:29.736Z,12.40
2018-09-26T22:59:59.056Z,12.40
2018-09-26T23:02:28.485Z,12.40
2018-09-26T23:04:57.719Z,12.30
2018-09-26T23:07:26.971Z,12.20
2018-09-26T23:09:56.240Z,12.10
2018-09-26T23:12:25.472Z,12.00
2018-09-26T23:14:54.714Z,12.00
2018-09-26T23:17:23.935Z,12.00
2018-09-26T23:19:53.168Z,12.00
2018-09-26T23:22:22.811Z,12.00
2018-09-26T23:24:52.081Z,11.90
2018-09-26T23:27:21.316Z,11.80
2018-09-26T23:29:50.560Z,11.80
2018-09-26T23:32:19.783Z,11.80
2018-09-26T23:34:49.009Z,11.70
2018-09-26T23:37:18.256Z,11.70
2018-09-26T23:39:47.464Z,11.70
2018-09-26T23:42:16.769Z,11.70
2018-09-26T23:44:46.511Z,11.70
2018-09-26T23:47:16.232Z,11.60
2018-09-26T23:49:45.467Z,11.60
2018-09-26T23:52:14.676Z,11.60
2018-09-26T23:54:43.909Z,11.60
2018-09-26T23:57:13.075Z,11.50
2018-09-26T23:59:42.303Z,11.60
